新東京国際空港の過去48時間の天気

新東京国際空港 (Tokyo/New Tokyo Intl)

現在時刻: 2/19 04:35 JST (2/18 19:35 UTC) 以下の時間は現地時間です。

過去48時間のMETAR気象情報
時間 風向 風速(m/s) 視程 気温(℃) 湿度(%) 気圧(hPa) 天気現象
19 04:00 北北西 2 9000m 5 81 1025
19 03:30 北北西 2 9000m 5 87 1025
19 03:00 北北西 3 9000m 5 87 1025
19 02:30 北北西 2 10km以上 5 87 1025
19 02:00 北北西 2 10km以上 6 81 1026
19 01:30 北北西 1 10km以上 6 76 1025
19 01:00 北北東 2 10km以上 6 81 1026
19 00:30 東北東 2 10km以上 8 76 1026
19 00:00 不定 1 10km以上 6 81 1026
18 23:30 不定 1 10km以上 7 81 1026
18 23:00 1 10km以上 7 81 1026
18 22:30 北東 1 10km以上 5 81 1026
18 22:00 東北東 1 10km以上 4 87 1026
18 21:30 不定 1 10km以上 6 81 1026
18 21:00 南東 1 10km以上 4 87 1026
18 20:30 南東 2 10km以上 5 75 1025
18 20:00 2 10km以上 7 70 1025
18 19:30 南東 2 10km以上 5 75 1025
18 19:00 南南東 2 10km以上 7 70 1025
18 18:30 2 10km以上 7 66 1025
18 18:00 3 10km以上 8 61 1025
18 17:30 南南東 3 10km以上 9 57 1024
18 17:00 南南西 3 10km以上 11 43 1023
18 16:30 南西 3 10km以上 12 41 1023
18 16:00 西南西 4 10km以上 13 26 1023
18 15:30 西南西 4 10km以上 13 33 1023
18 15:00 西南西 5 10km以上 13 28 1023
18 14:30 西 4 10km以上 14 29 1023
18 14:00 西 4 10km以上 13 26 1023
18 13:30 西 3 10km以上 13 26 1022
18 13:00 西北西 3 10km以上 14 26 1022
18 12:30 西北西 4 10km以上 12 28 1023
18 12:00 北西 5 10km以上 12 28 1023
18 11:30 西北西 4 10km以上 11 32 1023
18 11:00 西北西 3 10km以上 10 34 1024
18 10:30 西北西 3 10km以上 9 37 1024
18 07:30 西南西 1 10km以上 -1 80 1023
18 07:00 不定 1 10km以上 -3 86 1022
18 06:30 2 10km以上 -4 86 1021
18 06:00 2 10km以上 -4 86 1021
18 05:30 不定 1 10km以上 -4 86 1021
18 05:00 不定 1 10km以上 -4 86 1021
18 04:30 不定 1 10km以上 -4 86 1020
18 04:00 西北西 2 10km以上 -2 74 1020
18 03:30 北北西 2 10km以上 -2 69 1020
18 03:00 西北西 2 10km以上 0 59 1020
18 02:30 西北西 2 10km以上 1 60 1020
18 02:00 北西 3 10km以上 1 55 1019
18 01:30 不定 1 10km以上 0 64 1019
18 01:00 不定 1 10km以上 -1 74 1019
18 00:30 北北西 3 10km以上 0 59 1019
18 00:00 北西 3 10km以上 2 51 1019
17 23:30 西北西 4 10km以上 3 48 1019
17 23:00 西北西 3 10km以上 3 48 1019
17 22:30 西 3 10km以上 3 48 1019
17 22:00 西 1 10km以上 2 51 1019
17 21:30 南西 2 10km以上 0 69 1018
17 21:00 西南西 2 10km以上 2 60 1018
17 20:30 西南西 2 10km以上 2 69 1017
17 20:00 西 2 10km以上 3 65 1017
17 19:30 西南西 2 10km以上 2 64 1017
17 19:00 西南西 2 10km以上 2 69 1016
17 18:30 南東 3 10km以上 2 64 1016
17 18:00 不定 1 10km以上 5 52 1016
17 17:30 東南東 2 10km以上 5 52 1016
17 17:00 南東 3 10km以上 6 45 1015
17 16:30 南東 5 10km以上 7 42 1015
17 16:00 南東 6 10km以上 8 39 1015
17 15:30 南東 5 10km以上 9 37 1014
17 15:00 南南東 5 10km以上 9 37 1014
17 14:30 不定 1 10km以上 8 31 1014
17 14:00 東南東 4 10km以上 9 32 1014
17 13:30 北東 3 10km以上 8 31 1014
17 13:10 北北東 5 10km以上 10 27 1014
17 12:30 北北西 5 10km以上 9 29 1014
17 12:00 北北西 5 10km以上 9 29 1014
17 11:30 北北西 6 10km以上 8 31 1015
17 11:00 北北西 5 10km以上 8 34 1015
17 10:30 3 10km以上 7 36 1015
17 10:00 4 10km以上 6 42 1015
17 09:30 北北西 3 10km以上 5 42 1015
17 09:00 北北西 4 10km以上 5 42 1015
17 08:30 4 10km以上 4 45 1015
17 08:00 北北西 2 10km以上 4 48 1015
17 07:30 3 10km以上 3 52 1015
17 07:00 北北西 3 10km以上 1 55 1014
17 06:30 静穏 0 10km以上 0 59 1014
17 06:00 北北西 2 10km以上 2 48 1013
17 05:30 北北西 4 10km以上 2 48 1013
17 05:00 北西 4 10km以上 3 44 1012
RJAA 181900Z 34004KT 9000 FEW020 05/02 Q1025 NOSIG RMK 1CU020 A3028
RJAA 181830Z 33004KT 9000 FEW015 BKN170 05/03 Q1025 NOSIG RMK 1CU015 7AC170 A3028
RJAA 181800Z 33006KT 9000 FEW015 BKN170 05/03 Q1025 NOSIG RMK 1CU015 7AC170 A3028
RJAA 181730Z 33004KT 9999 FEW020 BKN170 05/03 Q1025 NOSIG RMK 1CU020 7AC170 A3029
RJAA 181700Z 33003KT 290V350 9999 FEW020 BKN035 06/03 Q1026 NOSIG RMK 1CU020 6SC035 A3030
RJAA 181630Z 33002KT 9999 FEW025 BKN035 BKN/// 06/02 Q1025 NOSIG
RJAA 181600Z 03004KT 330V070 9999 FEW025 SCT040 BKN180 06/03 Q1026 NOSIG RMK 1CU025 4SC040 7AC180 A3030
RJAA 181530Z 06003KT 020V120 9999 FEW025 BKN035 BKN/// 08/04 Q1026 NOSIG RMK 1CU025 5SC035 A3031
RJAA 181500Z VRB02KT 9999 FEW030 SCT035 BKN060 06/03 Q1026 NOSIG RMK 1CU030 4SC035 6SC060 A3031
RJAA 181430Z VRB02KT 9999 FEW030 BKN040 07/04 Q1026 NOSIG RMK 1CU030 7SC040 A3031
RJAA 181400Z 08002KT 9999 FEW030 BKN040 07/04 Q1026 NOSIG RMK 1CU030 6SC040 A3031
RJAA 181330Z 05002KT 9999 FEW030 SCT/// 05/02 Q1026 NOSIG
RJAA 181300Z 07002KT 9999 FEW030 SCT/// 04/02 Q1026 NOSIG
RJAA 181230Z VRB01KT 9999 FEW030 BKN/// 06/03 Q1026 NOSIG
RJAA 181200Z 13002KT 9999 FEW030 SCT/// 04/02 Q1026 NOSIG
RJAA 181130Z 14003KT 9999 FEW030 SCT/// 05/01 Q1025 NOSIG RMK 1CU030 A3029
RJAA 181100Z 18003KT 9999 FEW030 BKN/// 07/02 Q1025 NOSIG
RJAA 181030Z 14004KT 9999 FEW030 BKN/// 05/01 Q1025 NOSIG
RJAA 181000Z 15004KT 9999 FEW030 SCT/// 07/02 Q1025 NOSIG RMK 1CU030 A3028
RJAA 180930Z 17004KT 9999 FEW030 SCT/// 07/01 Q1025 NOSIG
RJAA 180900Z 17005KT 9999 FEW030 08/01 Q1025 NOSIG RMK 1CU030 A3027
RJAA 180830Z 16006KT 9999 FEW030 09/01 Q1024 NOSIG RMK 1CU030 A3025
RJAA 180800Z 21005KT 150V250 CAVOK 11/M01 Q1023 BECMG 15010KT
RJAA 180730Z 23005KT 200V260 9999 FEW030 12/M01 Q1023 NOSIG RMK 1CU030 A3023
RJAA 180700Z 24007KT 180V280 9999 FEW030 13/M06 Q1023 BECMG TL0730 18006KT
RJAA 180630Z 24008KT 210V280 9999 FEW030 13/M03 Q1023 BECMG TL0700 20007KT
RJAA 180600Z 25009KT 220V300 9999 FEW030 13/M05 Q1023 BECMG TL0700 20007KT RMK 1CU030 A3021
RJAA 180530Z 26008KT 210V320 9999 FEW030 14/M04 Q1023 BECMG TL0700 20005KT
RJAA 180500Z 26008KT 210V320 9999 FEW030 13/M06 Q1023 BECMG 20005KT
RJAA 180430Z 26006KT 200V320 9999 FEW030 13/M06 Q1022 BECMG FM0600 20005KT
RJAA 180400Z 30006KT 250V340 9999 FEW030 14/M05 Q1022 NOSIG RMK 1CU030 A3021
RJAA 180330Z 29008KT 230V350 9999 FEW030 12/M06 Q1023 NOSIG RMK 1CU030 A3021
RJAA 180300Z 32009KT 260V350 9999 FEW030 12/M06 Q1023 NOSIG RMK 1CU030 A3022
RJAA 180230Z 30008KT 250V350 9999 FEW030 11/M05 Q1023 NOSIG RMK 1CU030 A3023
RJAA 180200Z 30006KT 260V010 9999 FEW030 10/M05 Q1024 NOSIG RMK 1CU030 A3024
RJAA 180130Z 29006KT 230V330 9999 FEW030 09/M05 Q1024 NOSIG RMK 1CU030 A3024
RJAA 172230Z 25002KT 9999 FEW030 M01/M04 Q1023 NOSIG RMK 1CU030 A3021
RJAA 172200Z VRB01KT 9999 FEW030 M03/M05 Q1022 NOSIG RMK 1CU030 A3018
RJAA 172130Z 17003KT 9999 FEW030 M04/M06 Q1021 NOSIG RMK 1CU030 A3017
RJAA 172100Z 18003KT 9999 FEW030 M04/M06 Q1021 BECMG 32005KT
RJAA 172030Z VRB01KT CAVOK M04/M06 Q1021 NOSIG RMK A3015
RJAA 172000Z VRB01KT CAVOK M04/M06 Q1021 NOSIG RMK A3016
RJAA 171930Z VRB02KT CAVOK M04/M06 Q1020 NOSIG RMK A3015
RJAA 171900Z 30003KT CAVOK M02/M06 Q1020 NOSIG RMK A3014
RJAA 171830Z 34004KT CAVOK M02/M07 Q1020 NOSIG RMK A3013
RJAA 171800Z 30003KT CAVOK M00/M07 Q1020 NOSIG RMK A3013
RJAA 171730Z 30004KT CAVOK 01/M06 Q1020 NOSIG RMK A3012
RJAA 171700Z 32006KT CAVOK 01/M07 Q1019 NOSIG RMK A3012
RJAA 171630Z VRB01KT CAVOK M00/M06 Q1019 NOSIG RMK A3011
RJAA 171600Z VRB01KT CAVOK M01/M05 Q1019 NOSIG RMK A3011
RJAA 171530Z 33005KT CAVOK 00/M07 Q1019 NOSIG RMK A3010
RJAA 171500Z 31006KT CAVOK 02/M07 Q1019 NOSIG RMK A3010
RJAA 171430Z 30008KT CAVOK 03/M07 Q1019 NOSIG RMK A3010
RJAA 171400Z 30006KT CAVOK 03/M07 Q1019 NOSIG RMK A3009
RJAA 171330Z 28005KT CAVOK 03/M07 Q1019 NOSIG RMK A3009
RJAA 171300Z 26002KT CAVOK 02/M07 Q1019 NOSIG RMK A3009
RJAA 171230Z 23003KT CAVOK 00/M05 Q1018 BECMG 33005KT
RJAA 171200Z 24004KT CAVOK 02/M05 Q1018 BECMG 33005KT RMK A3006
RJAA 171130Z 24004KT CAVOK 02/M03 Q1017 BECMG 33005KT RMK A3005
RJAA 171100Z 26004KT CAVOK 03/M03 Q1017 NOSIG RMK A3004
RJAA 171030Z 24004KT CAVOK 02/M04 Q1017 BECMG 33005KT
RJAA 171000Z 24003KT CAVOK 02/M03 Q1016 BECMG 33005KT
RJAA 170930Z 13006KT CAVOK 02/M04 Q1016 NOSIG RMK A3002
RJAA 170900Z VRB02KT 9999 FEW030 05/M04 Q1016 NOSIG RMK 1CU030 A3001
RJAA 170830Z 12004KT 9999 FEW030 05/M04 Q1016 NOSIG RMK 1CU030 A3000
RJAA 170800Z 14005KT 110V180 9999 FEW030 06/M05 Q1015 NOSIG RMK 1CU030 A2999
RJAA 170730Z 14009KT 9999 FEW030 07/M05 Q1015 NOSIG RMK 1CU030 A2998
RJAA 170700Z 13011KT 9999 FEW030 08/M05 Q1015 NOSIG RMK 1CU030 A2997
RJAA 170630Z 14009KT 9999 FEW030 09/M05 Q1014 NOSIG RMK 1CU030 A2996
RJAA 170600Z 15009KT 9999 FEW030 09/M05 Q1014 NOSIG RMK 1CU030 A2996
RJAA 170530Z VRB02KT 9999 FEW030 08/M08 Q1014 BECMG 13005KT
RJAA 170500Z 11007KT 030V140 9999 FEW030 09/M07 Q1014 NOSIG RMK 1CU030 A2995
RJAA 170430Z 05005KT 320V100 9999 FEW030 08/M08 Q1014 BECMG TL0500 08005KT
RJAA 170410Z 03010KT 9999 FEW030 10/M08 Q1014 RMK 1CU030 A2995
RJAA 170330Z 34009KT 9999 FEW030 SCT060 09/M08 Q1014 NOSIG RMK 1CU030 4SC060 A2996
RJAA 170300Z 33010KT 9999 FEW030 SCT060 09/M08 Q1014 NOSIG RMK 1CU030 4SC060 A2996 VIRGA SW
RJAA 170230Z 33012KT 9999 FEW030 SCT070 08/M08 Q1015 NOSIG RMK 1CU030 4AC070 A2997
RJAA 170200Z 33010KT 280V350 9999 FEW030 BKN070 08/M07 Q1015 NOSIG RMK 1CU030 6AC070 A2998
RJAA 170130Z 35006KT 300V030 9999 FEW030 BKN060 07/M07 Q1015 NOSIG RMK 1CU030 6SC060 A2999
RJAA 170100Z 35008KT 9999 FEW030 BKN060 06/M06 Q1015 NOSIG RMK 1CU030 5SC060 A2999
RJAA 170030Z 33006KT 9999 FEW030 BKN060 05/M07 Q1015 NOSIG RMK 1CU030 6SC060 A2999
RJAA 170000Z 34007KT 310V020 9999 FEW030 BKN060 05/M07 Q1015 NOSIG RMK 1CU030 6SC060 A2999
RJAA 162330Z 35008KT 9999 FEW030 BKN060 04/M07 Q1015 NOSIG RMK 1CU030 6SC060 A2999
RJAA 162300Z 33004KT 300V010 9999 FEW030 BKN060 04/M06 Q1015 NOSIG RMK 1CU030 5SC060 A2998
RJAA 162230Z 01005KT 320V050 9999 FEW030 03/M06 Q1015 NOSIG RMK 1CU030 A2997 MOD TURB OBS AT 2203Z 50NM S NARITA 13000FT IN DES B787 SIA638
RJAA 162200Z 34005KT 9999 FEW030 01/M07 Q1014 NOSIG RMK 1CU030 A2996
RJAA 162130Z 00000KT 9999 FEW030 SCT060 M00/M07 Q1014 NOSIG RMK 1CU030 3SC060 A2995
RJAA 162100Z 33004KT 9999 FEW030 SCT060 02/M08 Q1013 NOSIG RMK 1CU030 3SC060 A2994
RJAA 162030Z 34007KT 9999 FEW030 SCT/// 02/M08 Q1013 NOSIG
RJAA 162000Z 32008KT 9999 FEW030 SCT/// 03/M08 Q1012 NOSIG RMK 1CU030 A2991